| time (UTC) | temp F | wind direction | speed knots | gust knots | rain 1hr in | rain 24hr in | rain mn in | humidity % | barometer mb |
| 20260506113842 | 51 | 51 | 9.6 | 15.6 | 0.00 | 0.00 | 0.00 | 72 | 1008.8 |
| 20260506113531 | 51 | 49 | 13.9 | 15.6 | 0.00 | 0.00 | 0.00 | 70 | 1008.8 |
| 20260506112841 | 51 | 51 | 10.4 | 13.0 | 0.00 | 0.00 | 0.00 | 70 | 1008.8 |
| 20260506112344 | 51 | 52 | 8.7 | 13.0 | 0.00 | 0.00 | 0.00 | 72 | 1008.8 |
| 20260506111841 | 51 | 51 | 9.6 | 13.0 | 0.00 | 0.00 | 0.00 | 71 | 1008.7 |
| 20260506111344 | 51 | 38 | 7.8 | 12.2 | 0.00 | 0.00 | 0.00 | 71 | 1008.7 |
| 20260506110839 | 50 | 27 | 8.7 | 14.8 | 0.00 | 0.00 | 0.00 | 72 | 1008.7 |
| 20260506110338 | 50 | 46 | 11.3 | 14.8 | 0.00 | 0.00 | 0.00 | 70 | 1008.6 |
| 20260506105839 | 50 | 39 | 7.0 | 15.6 | 0.00 | 0.00 | 0.00 | 72 | 1008.6 |
| 20260506105339 | 50 | 61 | 12.2 | 15.6 | 0.00 | 0.00 | 0.00 | 69 | 1008.7 |
| 20260506104838 | 50 | 61 | 8.7 | 14.8 | 0.00 | 0.00 | 0.00 | 72 | 1008.6 |
| 20260506104338 | 50 | 42 | 7.8 | 14.8 | 0.00 | 0.00 | 0.00 | 70 | 1008.6 |
| 20260506103839 | 50 | 46 | 8.7 | 15.6 | 0.00 | 0.00 | 0.00 | 71 | 1008.6 |
| 20260506102838 | 50 | 42 | 11.3 | 15.6 | 0.00 | 0.00 | 0.00 | 69 | 1008.5 |
| 20260506102337 | 50 | 55 | 12.2 | 15.6 | 0.00 | 0.00 | 0.00 | 68 | 1008.6 |
| 20260506101838 | 51 | 58 | 9.6 | 14.8 | 0.00 | 0.00 | 0.00 | 69 | 1008.5 |
| 20260506101337 | 51 | 56 | 8.7 | 13.9 | 0.00 | 0.00 | 0.00 | 70 | 1008.4 |
| 20260506100838 | 50 | 37 | 11.3 | 16.5 | 0.00 | 0.00 | 0.00 | 68 | 1008.5 |
| 20260506095836 | 51 | 62 | 10.4 | 14.8 | 0.00 | 0.00 | 0.00 | 68 | 1008.4 |
| 20260506095336 | 51 | 55 | 11.3 | 17.4 | 0.00 | 0.00 | 0.00 | 67 | 1008.4 |
| 20260506094337 | 51 | 49 | 13.0 | 15.6 | 0.00 | 0.00 | 0.00 | 67 | 1008.4 |
| 20260506093840 | 51 | 45 | 12.2 | 16.5 | 0.00 | 0.00 | 0.00 | 67 | 1008.3 |
| 20260506093335 | 51 | 46 | 11.3 | 16.5 | 0.00 | 0.00 | 0.00 | 68 | 1008.3 |
| 20260506092836 | 51 | 52 | 7.8 | 12.2 | 0.00 | 0.00 | 0.00 | 70 | 1008.2 |
| 20260506091835 | 51 | 44 | 9.6 | 15.6 | 0.00 | 0.00 | 0.00 | 68 | 1008.3 |
| 20260506091335 | 51 | 39 | 9.6 | 14.8 | 0.00 | 0.00 | 0.00 | 70 | 1008.1 |
| 20260506090847 | 51 | 42 | 11.3 | 14.8 | 0.00 | 0.00 | 0.00 | 69 | 1008.1 |
| 20260506090333 | 51 | 54 | 8.7 | 14.8 | 0.00 | 0.00 | 0.00 | 69 | 1008.1 |
| 20260506085832 | 51 | 35 | 10.4 | 14.8 | 0.00 | 0.00 | 0.00 | 70 | 1008.1 |
| 20260506084832 | 51 | 52 | 9.6 | 17.4 | 0.00 | 0.00 | 0.00 | 71 | 1008.1 |
| 20260506083832 | 51 | 42 | 7.8 | 14.8 | 0.00 | 0.00 | 0.00 | 73 | 1008.0 |
| 20260506083332 | 51 | 37 | 10.4 | 14.8 | 0.00 | 0.00 | 0.00 | 72 | 1008.0 |
| 20260506082832 | 51 | 44 | 8.7 | 14.8 | 0.00 | 0.00 | 0.00 | 73 | 1007.8 |
| 20260506081832 | 51 | 31 | 9.6 | 14.8 | 0.00 | 0.00 | 0.00 | 73 | 1007.9 |
| 20260506081332 | 51 | 52 | 10.4 | 14.8 | 0.00 | 0.00 | 0.00 | 74 | 1007.9 |
| 20260506080831 | 50 | 44 | 9.6 | 13.9 | 0.00 | 0.00 | 0.00 | 74 | 1007.8 |
| 20260506080330 | 50 | 54 | 10.4 | 13.9 | 0.00 | 0.00 | 0.00 | 74 | 1007.8 |
| 20260506073330 | 50 | 41 | 9.6 | 14.8 | 0.00 | 0.00 | 0.00 | 79 | 1007.7 |
| 20260506072831 | 50 | 31 | 8.7 | 13.9 | 0.00 | 0.00 | 0.00 | 79 | 1007.7 |
| 20260506072330 | 50 | 48 | 10.4 | 13.9 | 0.00 | 0.00 | 0.00 | 78 | 1007.7 |
| 20260506070831 | 50 | 35 | 9.6 | 13.9 | 0.00 | 0.00 | 0.00 | 77 | 1007.6 |
| 20260506070330 | 50 | 37 | 10.4 | 16.5 | 0.00 | 0.00 | 0.00 | 77 | 1007.6 |
| 20260506062328 | 49 | 28 | 7.8 | 12.2 | 0.00 | 0.00 | 0.00 | 77 | 1007.6 |
| 20260506061828 | 49 | 35 | 7.8 | 10.4 | 0.00 | 0.00 | 0.00 | 77 | 1007.4 |
| 20260506061328 | 49 | 28 | 7.8 | 10.4 | 0.00 | 0.00 | 0.00 | 77 | 1007.5 |
| 20260506060830 | 49 | 27 | 7.8 | 11.3 | 0.00 | 0.00 | 0.00 | 77 | 1007.4 |
| 20260506060330 | 49 | 24 | 7.8 | 11.3 | 0.00 | 0.00 | 0.00 | 77 | 1007.5 |
| 20260506051323 | 49 | 41 | 5.2 | 7.8 | 0.00 | 0.00 | 0.00 | 81 | 1007.4 |
| 20260506050822 | 49 | 46 | 6.1 | 10.4 | 0.00 | 0.00 | 0.00 | 81 | 1007.4 |
| 20260506043819 | 49 | 31 | 7.0 | 10.4 | 0.00 | 0.00 | 0.00 | 80 | 1007.3 |
| 20260506043320 | 49 | 28 | 7.8 | 10.4 | 0.00 | 0.00 | 0.00 | 80 | 1007.3 |
| 20260506042317 | 49 | 32 | 8.7 | 12.2 | 0.00 | 0.00 | 0.00 | 80 | 1007.2 |
| 20260506041817 | 49 | 24 | 9.6 | 12.2 | 0.00 | 0.00 | 0.00 | 81 | 1007.2 |
| 20260506041317 | 49 | 31 | 8.7 | 11.3 | 0.00 | 0.00 | 0.00 | 81 | 1007.2 |
| 20260506040320 | 49 | 25 | 8.7 | 13.0 | 0.00 | 0.00 | 0.00 | 82 | 1007.3 |
| 20260506035816 | 49 | 30 | 8.7 | 13.0 | 0.00 | 0.00 | 0.00 | 82 | 1007.2 |
| 20260506035318 | 49 | 28 | 8.7 | 13.0 | 0.00 | 0.00 | 0.00 | 82 | 1007.1 |
| 20260506034819 | 49 | 28 | 9.6 | 13.0 | 0.00 | 0.00 | 0.00 | 82 | 1007.1 |
| 20260506034318 | 49 | 13 | 10.4 | 13.0 | 0.00 | 0.00 | 0.00 | 83 | 1007.2 |
| 20260506033817 | 49 | 27 | 7.8 | 13.0 | 0.00 | 0.00 | 0.00 | 83 | 1007.3 |
| 20260506033320 | 49 | 28 | 9.6 | 13.0 | 0.00 | 0.00 | 0.00 | 84 | 1007.3 |
| 20260506032816 | 49 | 23 | 9.6 | 13.0 | 0.00 | 0.00 | 0.00 | 84 | 1007.3 |
| 20260506032315 | 49 | 24 | 9.6 | 13.9 | 0.00 | 0.00 | 0.00 | 84 | 1007.5 |
| 20260506031818 | 49 | 8 | 9.6 | 13.9 | 0.00 | 0.00 | 0.00 | 84 | 1007.5 |
| 20260506031316 | 49 | 21 | 10.4 | 13.0 | 0.00 | 0.00 | 0.00 | 84 | 1007.5 |
| 20260506030817 | 49 | 27 | 7.8 | 11.3 | 0.00 | 0.00 | 0.00 | 84 | 1007.5 |
| 20260506030315 | 49 | 14 | 8.7 | 11.3 | 0.00 | 0.00 | 0.00 | 85 | 1007.5 |
| 20260506025315 | 49 | 23 | 8.7 | 11.3 | 0.00 | 0.00 | 0.00 | 84 | 1007.6 |
| 20260506023818 | 49 | 15 | 7.8 | 11.3 | 0.00 | 0.00 | 0.00 | 85 | 1007.6 |
| 20260506022814 | 49 | 18 | 7.8 | 10.4 | 0.00 | 0.00 | 0.00 | 84 | 1007.6 |
| 20260506022314 | 49 | 25 | 8.7 | 11.3 | 0.00 | 0.00 | 0.00 | 84 | 1007.6 |
| 20260506021815 | 49 | 25 | 7.8 | 11.3 | 0.00 | 0.00 | 0.00 | 84 | 1007.7 |
| 20260506021314 | 49 | 30 | 7.8 | 9.6 | 0.00 | 0.00 | 0.00 | 84 | 1007.8 |
| 20260506020815 | 49 | 21 | 7.8 | 10.4 | 0.00 | 0.00 | 0.00 | 84 | 1007.7 |
| 20260506015816 | 49 | 15 | 7.0 | 9.6 | 0.00 | 0.00 | 0.00 | 84 | 1007.9 |
| 20260506014815 | 49 | 15 | 7.0 | 9.6 | 0.00 | 0.00 | 0.00 | 83 | 1008.0 |
| 20260506014314 | 49 | 10 | 7.0 | 10.4 | 0.00 | 0.00 | 0.00 | 83 | 1008.0 |
| 20260506013814 | 49 | 14 | 7.8 | 10.4 | 0.00 | 0.00 | 0.00 | 83 | 1008.1 |
| 20260506012813 | 49 | 20 | 7.8 | 10.4 | 0.00 | 0.00 | 0.00 | 83 | 1008.1 |
| 20260506012313 | 49 | 14 | 7.8 | 10.4 | 0.00 | 0.00 | 0.00 | 83 | 1008.1 |
| 20260506011814 | 49 | 8 | 7.0 | 11.3 | 0.00 | 0.00 | 0.00 | 83 | 1008.1 |
| 20260506011314 | 49 | 24 | 8.7 | 11.3 | 0.00 | 0.00 | 0.00 | 83 | 1008.1 |
| 20260506010814 | 49 | 7 | 7.0 | 10.4 | 0.00 | 0.00 | 0.00 | 83 | 1008.1 |
| 20260506010314 | 49 | 10 | 7.8 | 10.4 | 0.00 | 0.00 | 0.00 | 83 | 1008.2 |
| 20260506005312 | 49 | 14 | 7.8 | 9.6 | 0.00 | 0.00 | 0.00 | 82 | 1008.2 |
| 20260506004813 | 49 | 11 | 7.0 | 9.6 | 0.00 | 0.00 | 0.00 | 82 | 1008.3 |
| 20260506004312 | 49 | 11 | 6.1 | 9.6 | 0.00 | 0.00 | 0.00 | 82 | 1008.3 |
| 20260506003812 | 49 | 14 | 7.0 | 9.6 | 0.00 | 0.00 | 0.00 | 82 | 1008.4 |
| 20260506003315 | 49 | 11 | 6.1 | 10.4 | 0.00 | 0.00 | 0.00 | 82 | 1008.4 |
| 20260506002814 | 49 | 17 | 7.8 | 10.4 | 0.00 | 0.00 | 0.00 | 82 | 1008.4 |
| 20260506002317 | 49 | 28 | 7.0 | 10.4 | 0.00 | 0.00 | 0.00 | 82 | 1008.6 |
| 20260506000813 | 49 | 32 | 7.8 | 11.3 | 0.00 | 0.00 | 0.00 | 81 | 1008.6 |
| 20260506000312 | 49 | 24 | 7.8 | 11.3 | 0.00 | 0.00 | 0.00 | 81 | 1008.7 |
| 20260505235811 | 49 | 31 | 7.0 | 9.6 | 0.00 | 0.00 | 0.00 | 81 | 1008.7 |
| 20260505235311 | 49 | 30 | 6.1 | 10.4 | 0.00 | 0.00 | 0.00 | 81 | 1008.8 |
| 20260505234808 | 49 | 18 | 5.2 | 10.4 | 0.00 | 0.00 | 0.00 | 81 | 1008.8 |
| 20260505234310 | 49 | 14 | 7.8 | 10.4 | 0.00 | 0.00 | 0.00 | 81 | 1008.9 |
| 20260505233309 | 49 | 25 | 7.8 | 12.2 | 0.00 | 0.00 | 0.00 | 81 | 1008.9 |
| 20260505232810 | 49 | 24 | 7.8 | 11.3 | 0.00 | 0.00 | 0.00 | 80 | 1008.9 |
| 20260505232310 | 49 | 30 | 8.7 | 11.3 | 0.00 | 0.00 | 0.00 | 80 | 1009.0 |
| 20260505231809 | 49 | 21 | 9.6 | 11.3 | 0.00 | 0.00 | 0.00 | 80 | 1009.0 |
| 20260505230809 | 49 | 28 | 8.7 | 13.9 | 0.00 | 0.00 | 0.00 | 80 | 1009.0 |
| 20260505230308 | 49 | 21 | 8.7 | 12.2 | 0.00 | 0.00 | 0.00 | 80 | 1009.0 |
| 20260505225310 | 49 | 27 | 7.0 | 11.3 | 0.00 | 0.00 | 0.00 | 80 | 1009.0 |
| 20260505224808 | 49 | 25 | 8.7 | 14.8 | 0.00 | 0.00 | 0.00 | 80 | 1009.0 |
| 20260505224307 | 49 | 24 | 8.7 | 14.8 | 0.00 | 0.00 | 0.00 | 80 | 1009.1 |
| 20260505223812 | 49 | 17 | 7.0 | 13.0 | 0.00 | 0.00 | 0.00 | 80 | 1009.1 |
| 20260505223308 | 49 | 30 | 9.6 | 12.2 | 0.00 | 0.00 | 0.00 | 80 | 1009.2 |
| 20260505222810 | 49 | 17 | 9.6 | 14.8 | 0.00 | 0.00 | 0.00 | 80 | 1009.2 |
| 20260505222307 | 49 | 21 | 9.6 | 14.8 | 0.00 | 0.00 | 0.00 | 81 | 1009.2 |
| 20260505221808 | 49 | 32 | 8.7 | 12.2 | 0.00 | 0.00 | 0.00 | 81 | 1009.2 |
| 20260505221308 | 49 | 8 | 8.7 | 14.8 | 0.00 | 0.00 | 0.00 | 81 | 1009.2 |
| 20260505220809 | 49 | 14 | 9.6 | 14.8 | 0.00 | 0.00 | 0.00 | 80 | 1009.3 |
| 20260505220307 | 49 | 44 | 9.6 | 13.0 | 0.00 | 0.00 | 0.00 | 81 | 1009.3 |
| 20260505215809 | 49 | 21 | 9.6 | 13.9 | 0.00 | 0.00 | 0.00 | 81 | 1009.3 |
| 20260505215308 | 49 | 31 | 9.6 | 13.9 | 0.00 | 0.00 | 0.00 | 81 | 1009.3 |
| 20260505214806 | 49 | 18 | 10.4 | 12.2 | 0.00 | 0.00 | 0.00 | 81 | 1009.4 |
| 20260505214306 | 49 | 20 | 7.8 | 13.0 | 0.00 | 0.00 | 0.00 | 81 | 1009.4 |
| 20260505213807 | 49 | 17 | 8.7 | 13.0 | 0.00 | 0.00 | 0.00 | 81 | 1009.4 |
| 20260505213306 | 49 | 31 | 8.7 | 12.2 | 0.00 | 0.00 | 0.00 | 81 | 1009.5 |
| 20260505212809 | 49 | 10 | 8.7 | 12.2 | 0.00 | 0.00 | 0.00 | 81 | 1009.5 |
| 20260505212308 | 49 | 23 | 9.6 | 12.2 | 0.00 | 0.00 | 0.00 | 81 | 1009.5 |
| 20260505211306 | 49 | 27 | 9.6 | 13.0 | 0.00 | 0.00 | 0.00 | 81 | 1009.5 |
| 20260505210306 | 49 | 18 | 9.6 | 13.9 | 0.00 | 0.00 | 0.00 | 81 | 1009.6 |
| 20260505205306 | 49 | 28 | 11.3 | 13.9 | 0.00 | 0.01 | 0.00 | 81 | 1009.6 |
| 20260505204808 | 49 | 27 | 11.3 | 14.8 | 0.00 | 0.01 | 0.00 | 81 | 1009.7 |
| 20260505204307 | 49 | 15 | 8.7 | 14.8 | 0.00 | 0.01 | 0.00 | 81 | 1009.7 |
| 20260505203806 | 49 | 27 | 10.4 | 13.9 | 0.00 | 0.01 | 0.00 | 81 | 1009.8 |
| 20260505203312 | 49 | 18 | 9.6 | 12.2 | 0.00 | 0.01 | 0.00 | 81 | 1009.8 |
| 20260505202804 | 49 | 25 | 8.7 | 13.0 | 0.00 | 0.01 | 0.00 | 81 | 1009.8 |
| 20260505202310 | 49 | 21 | 10.4 | 13.0 | 0.00 | 0.01 | 0.00 | 81 | 1009.8 |
| 20260505201807 | 49 | 15 | 8.7 | 13.0 | 0.00 | 0.01 | 0.00 | 81 | 1009.9 |
| 20260505200804 | 49 | 20 | 9.6 | 12.2 | 0.00 | 0.01 | 0.00 | 81 | 1009.9 |
| 20260505200308 | 49 | 28 | 7.0 | 13.0 | 0.00 | 0.01 | 0.00 | 81 | 1009.8 |
| 20260505195804 | 50 | 27 | 7.8 | 13.0 | 0.00 | 0.01 | 0.00 | 81 | 1009.9 |
| 20260505195305 | 50 | 38 | 7.8 | 12.2 | 0.00 | 0.01 | 0.00 | 81 | 1009.8 |
| 20260505194803 | 50 | 24 | 7.8 | 12.2 | 0.00 | 0.01 | 0.00 | 81 | 1009.8 |
| 20260505194305 | 50 | 25 | 7.8 | 12.2 | 0.00 | 0.01 | 0.00 | 81 | 1009.8 |
| 20260505193802 | 50 | 30 | 9.6 | 12.2 | 0.00 | 0.01 | 0.00 | 81 | 1009.9 |
| 20260505193304 | 50 | 20 | 9.6 | 12.2 | 0.00 | 0.01 | 0.00 | 81 | 1009.8 |
| 20260505192803 | 50 | 28 | 8.7 | 13.9 | 0.00 | 0.01 | 0.00 | 81 | 1009.7 |
| 20260505192306 | 50 | 20 | 8.7 | 15.6 | 0.00 | 0.01 | 0.00 | 81 | 1009.6 |
| 20260505191805 | 50 | 20 | 9.6 | 15.6 | 0.00 | 0.01 | 0.00 | 81 | 1009.6 |
| 20260505191304 | 50 | 15 | 7.8 | 14.8 | 0.00 | 0.01 | 0.00 | 81 | 1009.6 |
| 20260505185803 | 50 | 37 | 13.0 | 18.2 | 0.00 | 0.01 | 0.00 | 81 | 1009.4 |
| 20260505185306 | 51 | 17 | 13.0 | 15.6 | 0.00 | 0.01 | 0.00 | 81 | 1009.3 |
| 20260505184803 | 51 | 31 | 10.4 | 15.6 | 0.00 | 0.01 | 0.00 | 81 | 1009.3 |
| 20260505184302 | 51 | 10 | 7.8 | 15.6 | 0.00 | 0.01 | 0.00 | 81 | 1009.3 |
| 20260505183809 | 51 | 23 | 12.2 | 15.6 | 0.00 | 0.01 | 0.00 | 81 | 1009.2 |
| 20260505181802 | 51 | 6 | 12.2 | 15.6 | 0.00 | 0.01 | 0.00 | 80 | 1009.3 |
| 20260505181303 | 51 | 18 | 9.6 | 13.9 | 0.00 | 0.01 | 0.00 | 80 | 1009.4 |
| 20260505175757 | 52 | 15 | 9.6 | 15.6 | 0.00 | 0.01 | 0.00 | 80 | 1009.4 |
| 20260505174757 | 52 | 13 | 13.0 | 17.4 | 0.00 | 0.01 | 0.00 | 79 | 1009.4 |
| 20260505173755 | 52 | 14 | 10.4 | 15.6 | 0.00 | 0.01 | 0.00 | 79 | 1009.3 |
| 20260505173257 | 52 | 28 | 13.0 | 17.4 | 0.00 | 0.01 | 0.00 | 78 | 1009.3 |
| 20260505171754 | 53 | 14 | 11.3 | 15.6 | 0.00 | 0.01 | 0.00 | 77 | 1009.4 |
| 20260505171257 | 53 | 11 | 12.2 | 15.6 | 0.00 | 0.01 | 0.00 | 76 | 1009.4 |
| 20260505170755 | 53 | 14 | 9.6 | 14.8 | 0.00 | 0.01 | 0.00 | 76 | 1009.4 |
| 20260505170253 | 53 | 23 | 9.6 | 13.0 | 0.00 | 0.01 | 0.00 | 76 | 1009.5 |
| 20260505165753 | 53 | 18 | 7.8 | 13.9 | 0.00 | 0.01 | 0.00 | 75 | 1009.5 |
| 20260505165254 | 53 | 20 | 10.4 | 13.9 | 0.00 | 0.01 | 0.00 | 76 | 1009.5 |
| 20260505164755 | 53 | 21 | 10.4 | 13.9 | 0.00 | 0.01 | 0.00 | 75 | 1009.5 |
| 20260505164251 | 53 | 7 | 9.6 | 14.8 | 0.00 | 0.01 | 0.00 | 76 | 1009.6 |
| 20260505163752 | 53 | 13 | 12.2 | 14.8 | 0.00 | 0.01 | 0.00 | 75 | 1009.5 |
| 20260505163258 | 53 | 27 | 10.4 | 14.8 | 0.00 | 0.01 | 0.00 | 76 | 1009.6 |
| 20260505162752 | 53 | 11 | 10.4 | 15.6 | 0.00 | 0.01 | 0.00 | 76 | 1009.5 |
| 20260505161753 | 53 | 20 | 10.4 | 16.5 | 0.00 | 0.01 | 0.00 | 76 | 1009.6 |
| 20260505161253 | 53 | 17 | 12.2 | 17.4 | 0.00 | 0.01 | 0.00 | 76 | 1009.6 |
| 20260505160750 | 53 | 6 | 13.0 | 17.4 | 0.00 | 0.01 | 0.00 | 76 | 1009.6 |
| 20260505160252 | 53 | 13 | 11.3 | 17.4 | 0.00 | 0.01 | 0.00 | 77 | 1009.7 |
| 20260505153250 | 53 | 24 | 13.0 | 16.5 | 0.00 | 0.01 | 0.00 | 77 | 1009.7 |
| 20260505152744 | 53 | 18 | 9.6 | 13.9 | 0.00 | 0.01 | 0.00 | 78 | 1009.8 |
| 20260505152250 | 53 | 21 | 11.3 | 13.9 | 0.00 | 0.01 | 0.00 | 77 | 1009.7 |
| 20260505151743 | 53 | 7 | 12.2 | 13.9 | 0.00 | 0.01 | 0.00 | 78 | 1009.9 |
| 20260505151247 | 53 | 30 | 8.7 | 14.8 | 0.00 | 0.01 | 0.00 | 79 | 1009.9 |
| 20260505150742 | 53 | 23 | 8.7 | 14.8 | 0.00 | 0.01 | 0.00 | 79 | 1009.9 |
| 20260505140246 | 53 | 27 | 9.6 | 12.2 | 0.00 | 0.01 | 0.00 | 80 | 1010.3 |
| 20260505124739 | 52 | 18 | 8.7 | 12.2 | 0.00 | 0.01 | 0.00 | 79 | 1010.7 |
| 20260505124241 | 52 | 35 | 8.7 | 11.3 | 0.00 | 0.01 | 0.00 | 81 | 1010.8 |
| 20260505123739 | 52 | 27 | 8.7 | 10.4 | 0.00 | 0.01 | 0.00 | 80 | 1010.9 |
| 20260505123242 | 52 | 28 | 7.8 | 10.4 | 0.00 | 0.01 | 0.00 | 80 | 1011.0 |
| 20260505122255 | 51 | 35 | 8.7 | 11.3 | 0.00 | 0.01 | 0.00 | 80 | 1011.0 |
| 20260505121738 | 51 | 54 | 8.7 | 11.3 | 0.00 | 0.06 | 0.00 | 80 | 1010.9 |
| 20260505121241 | 52 | 48 | 7.8 | 11.3 | 0.00 | 0.09 | 0.00 | 80 | 1010.9 |
| 20260505120738 | 52 | 35 | 7.0 | 11.3 | 0.00 | 0.12 | 0.00 | 80 | 1010.9 |
| 20260505115336 | 52 | 30 | 7.8 | 11.3 | 0.00 | 0.12 | 0.00 | 80 | 1010.9 |
| 20260505114732 | 52 | 27 | 7.0 | 11.3 | 0.00 | 0.12 | 0.00 | 81 | 1010.9 |
| 20260505114232 | 52 | 27 | 7.0 | 11.3 | 0.00 | 0.12 | 0.00 | 80 | 1010.9 |